createdAt,value
2023-03-20T00:51:00.057Z,7.78
2023-03-20T00:53:26.978Z,9.02
2023-03-20T00:55:53.859Z,6.90
2023-03-20T00:58:20.579Z,7.28
2023-03-20T01:00:47.897Z,6.35
2023-03-20T01:03:20.638Z,6.45
2023-03-20T01:05:48.109Z,6.63
2023-03-20T01:08:21.594Z,6.70
2023-03-20T01:10:53.007Z,8.13
2023-03-20T01:13:25.460Z,9.05
2023-03-20T01:15:54.750Z,7.05
2023-03-20T01:18:23.039Z,6.55
2023-03-20T01:20:50.592Z,6.50
2023-03-20T01:33:38.387Z,7.15
2023-03-20T01:36:05.825Z,6.80
2023-03-20T01:38:32.719Z,7.05
2023-03-20T01:41:18.145Z,7.95
2023-03-20T01:43:46.588Z,7.45
2023-03-20T01:46:31.784Z,7.22
2023-03-20T01:48:59.130Z,6.88
2023-03-20T01:51:33.073Z,7.47
2023-03-20T01:54:09.143Z,9.90
2023-03-20T01:57:05.031Z,8.32
2023-03-20T01:59:39.922Z,9.38
2023-03-20T02:02:07.696Z,8.55
2023-03-20T02:04:38.824Z,6.75
2023-03-20T02:07:09.317Z,7.18
2023-03-20T02:09:36.440Z,7.00
2023-03-20T02:12:15.494Z,7.35
2023-03-20T02:14:43.374Z,6.78
2023-03-20T02:17:10.852Z,6.90
2023-03-20T02:20:15.086Z,7.30
2023-03-20T02:23:16.219Z,6.80
2023-03-20T02:25:49.322Z,8.00
2023-03-20T02:28:44.242Z,7.70
2023-03-20T02:31:42.125Z,8.95
2023-03-20T02:34:33.809Z,9.43
2023-03-20T02:37:21.282Z,7.55
2023-03-20T02:40:14.898Z,7.90
2023-03-20T02:43:02.843Z,8.05
2023-03-20T02:45:37.830Z,8.98
2023-03-20T02:48:21.177Z,9.85
2023-03-20T02:51:01.271Z,9.82
2023-03-20T02:53:57.059Z,9.02
2023-03-20T02:56:35.295Z,8.35
2023-03-20T02:59:07.823Z,8.77
2023-03-20T03:01:47.078Z,9.65
2023-03-20T03:04:23.856Z,8.50
2023-03-20T03:06:55.808Z,9.32
2023-03-20T03:09:35.652Z,8.60
2023-03-20T03:12:18.107Z,8.35
2023-03-20T03:14:56.714Z,9.32
2023-03-20T03:17:26.893Z,9.73
2023-03-20T03:20:02.819Z,8.70
2023-03-20T03:22:30.066Z,9.20
2023-03-20T03:24:57.071Z,10.13
2023-03-20T03:27:34.493Z,9.10
2023-03-20T03:30:28.627Z,9.65
2023-03-20T03:33:18.891Z,10.13
2023-03-20T03:35:46.692Z,9.90
2023-03-20T03:38:19.745Z,11.40
2023-03-20T03:40:58.075Z,11.05
2023-03-20T03:43:35.756Z,11.60
2023-03-20T03:46:12.616Z,10.25
2023-03-20T03:48:47.110Z,11.10
2023-03-20T03:51:20.634Z,11.00
2023-03-20T03:53:57.971Z,10.20
2023-03-20T03:56:28.239Z,14.63
2023-03-20T03:59:00.958Z,12.02
2023-03-20T04:01:30.374Z,13.43
2023-03-20T04:04:06.952Z,14.95
2023-03-20T04:09:01.001Z,18.98
2023-03-20T04:11:29.263Z,20.92
2023-03-20T04:13:56.367Z,26.65
2023-03-20T04:16:24.601Z,20.45
2023-03-20T04:18:52.230Z,20.98
2023-03-20T04:21:19.563Z,22.65
2023-03-20T04:23:46.918Z,26.38
2023-03-20T04:26:13.909Z,29.85
2023-03-20T04:28:41.055Z,27.17
2023-03-20T04:31:08.214Z,31.92
2023-03-20T04:33:35.197Z,32.70
2023-03-20T04:36:02.174Z,36.55
2023-03-20T04:38:28.964Z,39.90
2023-03-20T04:40:56.056Z,37.17
2023-03-20T04:43:22.892Z,36.60
2023-03-20T04:45:49.941Z,39.22
2023-03-20T04:48:16.983Z,38.72
2023-03-20T04:50:46.869Z,44.55
2023-03-20T04:53:14.262Z,41.25
2023-03-20T04:55:41.653Z,42.47
2023-03-20T04:58:08.606Z,42.38
2023-03-20T05:00:35.519Z,45.53
2023-03-20T05:03:03.006Z,43.67
2023-03-20T05:05:29.834Z,46.58
2023-03-20T05:07:56.868Z,48.28
2023-03-20T05:10:23.767Z,45.05
2023-03-20T05:12:50.654Z,44.33
2023-03-20T05:15:18.248Z,45.03
2023-03-20T05:17:45.040Z,39.88
2023-03-20T05:20:12.021Z,41.22
2023-03-20T05:22:39.061Z,47.13
2023-03-20T05:25:06.288Z,41.83
2023-03-20T05:27:33.194Z,43.28
2023-03-20T05:30:00.071Z,39.60
2023-03-20T05:32:27.277Z,45.35
2023-03-20T05:34:54.045Z,40.55
2023-03-20T05:37:20.805Z,41.92
2023-03-20T05:39:47.713Z,41.38
2023-03-20T05:42:14.529Z,34.67
2023-03-20T05:44:41.245Z,36.60
2023-03-20T05:47:08.236Z,38.10
2023-03-20T05:49:35.045Z,37.88
2023-03-20T05:52:01.893Z,36.17
2023-03-20T05:54:28.783Z,36.63
2023-03-20T05:56:58.905Z,32.88
2023-03-20T05:59:25.868Z,35.22
2023-03-20T06:01:52.873Z,39.78
2023-03-20T06:04:19.671Z,37.58
2023-03-20T06:06:46.528Z,38.67
2023-03-20T06:09:13.362Z,43.88
2023-03-20T06:11:40.292Z,45.63
2023-03-20T06:14:07.130Z,42.90
2023-03-20T06:16:34.417Z,39.72
2023-03-20T06:19:01.215Z,39.88
2023-03-20T06:21:28.050Z,41.25
2023-03-20T06:23:54.968Z,40.95
2023-03-20T06:26:22.174Z,42.42
2023-03-20T06:28:48.939Z,40.67
2023-03-20T16:01:32.066Z,3.45
2023-03-20T16:04:01.542Z,2.47
2023-03-20T16:06:29.383Z,2.45
2023-03-20T16:09:01.893Z,1.90
2023-03-20T16:11:40.563Z,2.20
2023-03-20T16:14:31.744Z,2.47
2023-03-20T16:17:00.978Z,1.98
2023-03-20T16:19:29.471Z,3.35
2023-03-20T16:22:01.345Z,2.67
2023-03-20T16:24:31.670Z,2.88
2023-03-20T16:26:58.542Z,2.13
2023-03-20T16:29:28.001Z,4.15
2023-03-20T16:32:05.797Z,5.20
2023-03-20T16:34:39.625Z,3.83
2023-03-20T16:37:26.675Z,2.88
2023-03-20T16:42:38.716Z,2.35
2023-03-20T16:45:14.033Z,2.33
2023-03-20T16:47:42.483Z,1.83
2023-03-20T16:50:19.490Z,4.05
2023-03-20T16:52:52.850Z,2.10
2023-03-20T16:55:32.027Z,2.08
2023-03-20T16:58:03.566Z,2.03
2023-03-20T17:00:46.859Z,1.63
2023-03-20T17:03:17.599Z,2.25
2023-03-20T17:05:49.597Z,1.92
2023-03-20T17:08:23.150Z,2.88
2023-03-20T17:10:54.953Z,3.30
2023-03-20T17:13:21.957Z,3.85
2023-03-20T17:15:48.928Z,3.15
2023-03-20T17:18:15.882Z,3.50
2023-03-20T17:20:42.689Z,5.13
2023-03-20T17:23:16.593Z,3.80
2023-03-20T17:25:44.034Z,2.88
2023-03-20T17:28:23.795Z,2.72
2023-03-20T17:30:51.601Z,2.55
2023-03-20T17:33:21.089Z,3.17
2023-03-20T17:35:48.971Z,4.72
2023-03-20T17:38:21.556Z,3.88
2023-03-20T17:40:50.442Z,5.53
2023-03-20T17:43:18.441Z,4.53
2023-03-20T17:45:47.478Z,4.43
2023-03-20T17:48:21.009Z,5.82
2023-03-20T17:50:50.996Z,3.58
2023-03-20T17:53:21.112Z,3.35
2023-03-20T17:55:47.932Z,8.75
2023-03-20T17:58:17.249Z,3.03
2023-03-20T18:00:44.139Z,3.80
2023-03-20T18:03:11.244Z,2.95
2023-03-20T18:05:39.633Z,3.75
2023-03-20T18:08:13.481Z,4.05
2023-03-20T18:10:40.858Z,4.43
2023-03-20T18:13:07.660Z,4.57
2023-03-20T18:15:34.591Z,4.22
2023-03-20T18:18:01.485Z,3.90
2023-03-20T18:20:31.274Z,4.25
2023-03-20T18:22:58.325Z,6.03
2023-03-20T18:25:28.340Z,5.60
2023-03-20T18:27:56.369Z,4.90
2023-03-20T18:30:26.318Z,4.93
2023-03-20T18:32:56.181Z,7.57
2023-03-20T18:35:23.012Z,3.90
2023-03-20T18:37:50.023Z,4.53
2023-03-20T18:40:28.445Z,6.88
2023-03-20T18:42:56.327Z,3.13
2023-03-20T18:45:23.961Z,3.88
2023-03-20T18:47:51.174Z,4.93
2023-03-20T18:50:40.815Z,6.75
2023-03-20T18:53:08.750Z,7.93
2023-03-20T18:55:36.829Z,9.43
2023-03-20T18:58:04.039Z,4.63
2023-03-20T19:00:38.167Z,4.60
2023-03-20T19:03:05.467Z,6.47
2023-03-20T19:05:32.351Z,5.18
2023-03-20T19:07:59.884Z,4.68
2023-03-20T19:10:36.393Z,4.82
2023-03-20T19:13:05.437Z,3.40
2023-03-20T19:15:35.588Z,4.07
2023-03-20T19:18:04.756Z,5.38
2023-03-20T19:20:36.550Z,4.85
2023-03-20T19:23:05.488Z,4.63
2023-03-20T19:25:33.820Z,4.05
2023-03-20T19:28:01.304Z,4.00
2023-03-20T19:30:29.949Z,3.45
2023-03-20T19:32:57.373Z,6.38
2023-03-20T19:35:50.344Z,4.72
2023-03-20T19:38:16.526Z,5.25
2023-03-20T19:40:46.140Z,3.63
2023-03-20T19:43:13.433Z,4.82
2023-03-20T19:45:43.024Z,4.40
2023-03-20T19:48:18.437Z,4.80
2023-03-20T19:50:46.773Z,3.97
2023-03-20T19:53:16.624Z,6.43
2023-03-20T19:55:43.868Z,4.75
2023-03-20T19:58:11.145Z,7.95
2023-03-20T20:00:56.716Z,10.40
2023-03-20T20:03:25.641Z,5.20
2023-03-20T20:05:52.973Z,7.38
2023-03-20T20:08:30.948Z,8.20
2023-03-20T20:11:07.177Z,5.30
2023-03-20T20:13:46.852Z,7.55
2023-03-20T20:16:22.028Z,8.55
2023-03-20T20:18:48.836Z,5.55
2023-03-20T20:24:03.032Z,10.95
2023-03-20T20:26:31.456Z,7.07
2023-03-20T20:29:02.270Z,7.15
2023-03-20T20:31:30.916Z,6.47
2023-03-20T20:34:38.628Z,5.70
2023-03-20T20:39:31.984Z,5.22
2023-03-20T20:41:58.817Z,7.30
2023-03-20T20:44:25.572Z,5.55
2023-03-20T20:46:52.336Z,5.78
2023-03-20T20:49:20.285Z,9.43
2023-03-20T20:51:48.088Z,8.75
2023-03-20T20:54:15.404Z,6.20
2023-03-20T20:56:42.358Z,6.60
2023-03-20T20:59:09.246Z,5.72
2023-03-20T21:01:36.508Z,5.70
2023-03-20T21:04:03.456Z,4.85
2023-03-20T21:07:03.498Z,5.80
2023-03-20T21:09:17.173Z,6.75
2023-03-20T21:11:44.036Z,5.10
2023-03-20T21:14:11.049Z,5.55
2023-03-20T21:16:37.783Z,6.03
2023-03-20T21:19:04.675Z,4.78
2023-03-20T21:21:31.506Z,4.25
2023-03-20T21:23:58.377Z,7.53
2023-03-20T21:26:25.190Z,8.18
2023-03-20T21:28:52.057Z,4.85
2023-03-20T21:31:30.911Z,7.85
2023-03-20T21:33:58.111Z,6.28
2023-03-20T21:36:25.173Z,8.88
2023-03-20T21:39:09.292Z,5.72
2023-03-20T21:41:38.176Z,6.32
2023-03-20T21:44:06.457Z,9.68
2023-03-20T21:47:10.415Z,4.10
2023-03-20T22:20:56.413Z,6.22
2023-03-20T22:31:55.297Z,8.30
2023-03-20T22:34:39.867Z,5.75
2023-03-20T22:42:51.379Z,7.13
2023-03-20T22:45:12.525Z,4.90
2023-03-20T22:47:39.533Z,4.78
2023-03-20T22:50:07.033Z,5.43
2023-03-20T22:52:48.009Z,6.25
2023-03-20T22:55:17.347Z,4.68
2023-03-20T22:57:56.173Z,6.70
2023-03-20T23:00:30.703Z,8.23
2023-03-20T23:03:13.725Z,6.22
2023-03-20T23:05:42.375Z,8.10
2023-03-20T23:08:11.851Z,5.40
2023-03-20T23:10:43.594Z,6.30
2023-03-20T23:13:11.461Z,6.75
2023-03-20T23:15:38.439Z,5.38
2023-03-20T23:18:06.300Z,5.43
2023-03-20T23:20:33.241Z,6.93
2023-03-20T23:23:00.284Z,6.57
2023-03-20T23:25:38.337Z,6.57
2023-03-20T23:28:07.192Z,5.40
2023-03-20T23:30:43.925Z,5.40
2023-03-20T23:33:12.229Z,4.72
2023-03-20T23:35:39.202Z,8.73
2023-03-20T23:38:05.997Z,6.13
2023-03-20T23:40:33.086Z,8.57
2023-03-20T23:42:59.900Z,10.82
2023-03-20T23:45:26.822Z,6.03
2023-03-20T23:47:53.670Z,7.97
2023-03-20T23:50:28.902Z,6.47
2023-03-20T23:53:13.784Z,6.28
2023-03-20T23:55:47.115Z,6.25
2023-03-20T23:58:14.344Z,6.57
